sensor_id;sensor_type;location;lat;lon;timestamp;temperature;humidity
32476;DHT22;18929;48.008;10.882;2024-01-10T00:00:07;-2.80;99.90
32476;DHT22;18929;48.008;10.882;2024-01-10T00:02:35;-2.90;99.90
32476;DHT22;18929;48.008;10.882;2024-01-10T00:05:02;-3.00;99.90
32476;DHT22;18929;48.008;10.882;2024-01-10T00:07:30;-2.90;99.90
32476;DHT22;18929;48.008;10.882;2024-01-10T00:09:58;-3.20;99.90
32476;DHT22;18929;48.008;10.882;2024-01-10T00:12:27;-3.10;99.90
32476;DHT22;18929;48.008;10.882;2024-01-10T00:14:59;-3.20;99.90
32476;DHT22;18929;48.008;10.882;2024-01-10T00:17:26;-3.00;99.90
32476;DHT22;18929;48.008;10.882;2024-01-10T00:19:52;-2.70;99.90
32476;DHT22;18929;48.008;10.882;2024-01-10T00:22:19;-2.80;99.90
32476;DHT22;18929;48.008;10.882;2024-01-10T00:24:46;-2.90;99.90
32476;DHT22;18929;48.008;10.882;2024-01-10T00:27:15;-2.90;99.90
32476;DHT22;18929;48.008;10.882;2024-01-10T00:29:42;-2.90;99.90
32476;DHT22;18929;48.008;10.882;2024-01-10T00:32:09;-3.20;99.90
32476;DHT22;18929;48.008;10.882;2024-01-10T00:34:36;-2.90;99.90
32476;DHT22;18929;48.008;10.882;2024-01-10T00:39:52;-2.80;99.90
32476;DHT22;18929;48.008;10.882;2024-01-10T00:42:21;-2.90;99.90
32476;DHT22;18929;48.008;10.882;2024-01-10T00:44:48;-2.70;99.90
32476;DHT22;18929;48.008;10.882;2024-01-10T00:47:15;-2.50;99.90
32476;DHT22;18929;48.008;10.882;2024-01-10T00:49:42;-2.40;99.90
32476;DHT22;18929;48.008;10.882;2024-01-10T00:52:09;-3.20;99.90
32476;DHT22;18929;48.008;10.882;2024-01-10T00:54:36;-3.50;99.90
32476;DHT22;18929;48.008;10.882;2024-01-10T00:57:03;-3.10;99.90
32476;DHT22;18929;48.008;10.882;2024-01-10T00:59:32;-2.90;99.90
32476;DHT22;18929;48.008;10.882;2024-01-10T01:01:59;-2.60;99.90
32476;DHT22;18929;48.008;10.882;2024-01-10T01:04:26;-2.60;99.90
32476;DHT22;18929;48.008;10.882;2024-01-10T01:06:53;-2.50;99.90
32476;DHT22;18929;48.008;10.882;2024-01-10T01:09:23;-2.40;99.90
32476;DHT22;18929;48.008;10.882;2024-01-10T01:11:50;-2.40;99.90
32476;DHT22;18929;48.008;10.882;2024-01-10T01:14:17;-2.30;99.90
32476;DHT22;18929;48.008;10.882;2024-01-10T01:16:46;-2.40;99.90
32476;DHT22;18929;48.008;10.882;2024-01-10T01:19:13;-2.50;99.90
32476;DHT22;18929;48.008;10.882;2024-01-10T01:21:40;-2.20;99.90
32476;DHT22;18929;48.008;10.882;2024-01-10T01:24:07;-2.30;99.90
32476;DHT22;18929;48.008;10.882;2024-01-10T01:26:34;-2.20;99.90
32476;DHT22;18929;48.008;10.882;2024-01-10T01:29:01;-2.30;99.90
32476;DHT22;18929;48.008;10.882;2024-01-10T01:31:28;-2.40;99.90
32476;DHT22;18929;48.008;10.882;2024-01-10T01:33:56;-2.50;99.90
32476;DHT22;18929;48.008;10.882;2024-01-10T01:38:54;-2.60;99.90
32476;DHT22;18929;48.008;10.882;2024-01-10T01:41:21;-2.60;99.90
32476;DHT22;18929;48.008;10.882;2024-01-10T01:43:48;-2.50;99.90
32476;DHT22;18929;48.008;10.882;2024-01-10T01:46:15;-2.70;99.90
32476;DHT22;18929;48.008;10.882;2024-01-10T01:48:42;-2.90;99.90
32476;DHT22;18929;48.008;10.882;2024-01-10T01:51:11;-2.80;99.90
32476;DHT22;18929;48.008;10.882;2024-01-10T01:53:39;-3.10;99.90
32476;DHT22;18929;48.008;10.882;2024-01-10T01:56:07;-2.60;99.90
32476;DHT22;18929;48.008;10.882;2024-01-10T01:58:34;-2.60;99.90
32476;DHT22;18929;48.008;10.882;2024-01-10T02:01:02;-3.00;99.90
32476;DHT22;18929;48.008;10.882;2024-01-10T02:03:30;-2.80;99.90
32476;DHT22;18929;48.008;10.882;2024-01-10T02:08:42;-2.60;99.90
32476;DHT22;18929;48.008;10.882;2024-01-10T02:11:09;-2.70;99.90
32476;DHT22;18929;48.008;10.882;2024-01-10T02:13:36;-2.90;99.90
32476;DHT22;18929;48.008;10.882;2024-01-10T02:16:03;-2.70;99.90
32476;DHT22;18929;48.008;10.882;2024-01-10T02:18:30;-2.50;99.90
32476;DHT22;18929;48.008;10.882;2024-01-10T02:20:58;-2.40;99.90
32476;DHT22;18929;48.008;10.882;2024-01-10T02:23:24;-3.00;99.90
32476;DHT22;18929;48.008;10.882;2024-01-10T02:25:53;-3.50;99.90
32476;DHT22;18929;48.008;10.882;2024-01-10T02:28:20;-3.70;99.90
32476;DHT22;18929;48.008;10.882;2024-01-10T02:30:48;-3.50;99.90
32476;DHT22;18929;48.008;10.882;2024-01-10T02:33:23;-2.90;99.90
32476;DHT22;18929;48.008;10.882;2024-01-10T02:35:51;-2.60;99.90
32476;DHT22;18929;48.008;10.882;2024-01-10T02:38:18;-2.70;99.90
32476;DHT22;18929;48.008;10.882;2024-01-10T02:40:48;-3.20;99.90
32476;DHT22;18929;48.008;10.882;2024-01-10T02:43:17;-2.70;99.90
32476;DHT22;18929;48.008;10.882;2024-01-10T02:45:44;-2.70;99.90
32476;DHT22;18929;48.008;10.882;2024-01-10T02:48:11;-2.60;99.90
32476;DHT22;18929;48.008;10.882;2024-01-10T02:50:38;-2.60;99.90
32476;DHT22;18929;48.008;10.882;2024-01-10T02:53:05;-2.30;99.90
32476;DHT22;18929;48.008;10.882;2024-01-10T02:55:32;-2.90;99.90
32476;DHT22;18929;48.008;10.882;2024-01-10T02:57:59;-3.40;99.90
32476;DHT22;18929;48.008;10.882;2024-01-10T03:00:28;-3.50;99.90
32476;DHT22;18929;48.008;10.882;2024-01-10T03:03:01;-3.10;99.90
32476;DHT22;18929;48.008;10.882;2024-01-10T03:05:27;-2.70;99.90
32476;DHT22;18929;48.008;10.882;2024-01-10T03:07:54;-2.60;99.90
32476;DHT22;18929;48.008;10.882;2024-01-10T03:10:21;-2.60;99.90
32476;DHT22;18929;48.008;10.882;2024-01-10T03:12:48;-3.00;99.90
32476;DHT22;18929;48.008;10.882;2024-01-10T03:15:15;-2.80;99.90
32476;DHT22;18929;48.008;10.882;2024-01-10T03:17:44;-2.60;99.90
32476;DHT22;18929;48.008;10.882;2024-01-10T03:20:11;-3.30;99.90
32476;DHT22;18929;48.008;10.882;2024-01-10T03:22:38;-3.30;99.90
32476;DHT22;18929;48.008;10.882;2024-01-10T03:25:05;-3.80;99.90
32476;DHT22;18929;48.008;10.882;2024-01-10T03:27:32;-3.80;99.90
32476;DHT22;18929;48.008;10.882;2024-01-10T03:30:00;-3.40;99.90
32476;DHT22;18929;48.008;10.882;2024-01-10T03:32:27;-3.00;99.90
32476;DHT22;18929;48.008;10.882;2024-01-10T03:34:57;-3.00;99.90
32476;DHT22;18929;48.008;10.882;2024-01-10T03:37:24;-3.10;99.90
32476;DHT22;18929;48.008;10.882;2024-01-10T03:39:51;-3.00;99.90
32476;DHT22;18929;48.008;10.882;2024-01-10T03:42:18;-3.10;99.90
32476;DHT22;18929;48.008;10.882;2024-01-10T03:44:45;-3.10;99.90
32476;DHT22;18929;48.008;10.882;2024-01-10T03:47:11;-3.00;99.90
32476;DHT22;18929;48.008;10.882;2024-01-10T03:49:38;-2.80;99.90
32476;DHT22;18929;48.008;10.882;2024-01-10T03:52:07;-2.80;99.90
32476;DHT22;18929;48.008;10.882;2024-01-10T03:54:34;-2.80;99.90
32476;DHT22;18929;48.008;10.882;2024-01-10T03:57:00;-2.70;99.90
32476;DHT22;18929;48.008;10.882;2024-01-10T03:59:27;-2.70;99.90
32476;DHT22;18929;48.008;10.882;2024-01-10T04:01:54;-2.60;99.90
32476;DHT22;18929;48.008;10.882;2024-01-10T04:04:21;-2.90;99.90
32476;DHT22;18929;48.008;10.882;2024-01-10T04:06:48;-2.60;99.90
32476;DHT22;18929;48.008;10.882;2024-01-10T04:09:17;-2.60;99.90
32476;DHT22;18929;48.008;10.882;2024-01-10T04:11:44;-2.50;99.90
32476;DHT22;18929;48.008;10.882;2024-01-10T04:14:11;-3.20;99.90
32476;DHT22;18929;48.008;10.882;2024-01-10T04:16:38;-2.70;99.90
32476;DHT22;18929;48.008;10.882;2024-01-10T04:19:05;-2.50;99.90
32476;DHT22;18929;48.008;10.882;2024-01-10T04:21:32;-2.40;99.90
32476;DHT22;18929;48.008;10.882;2024-01-10T04:23:59;-2.30;99.90
32476;DHT22;18929;48.008;10.882;2024-01-10T04:26:27;-2.30;99.90
32476;DHT22;18929;48.008;10.882;2024-01-10T04:31:37;-2.40;99.90
32476;DHT22;18929;48.008;10.882;2024-01-10T04:34:05;-2.20;99.90
32476;DHT22;18929;48.008;10.882;2024-01-10T04:36:31;-2.30;99.90
32476;DHT22;18929;48.008;10.882;2024-01-10T04:38:58;-2.30;99.90
32476;DHT22;18929;48.008;10.882;2024-01-10T04:41:25;-2.40;99.90
32476;DHT22;18929;48.008;10.882;2024-01-10T04:43:54;-2.50;99.90
32476;DHT22;18929;48.008;10.882;2024-01-10T04:46:21;-2.20;99.90
32476;DHT22;18929;48.008;10.882;2024-01-10T04:48:48;-2.20;99.90
32476;DHT22;18929;48.008;10.882;2024-01-10T04:51:15;-2.30;99.90
32476;DHT22;18929;48.008;10.882;2024-01-10T04:53:50;-2.30;99.90
32476;DHT22;18929;48.008;10.882;2024-01-10T04:56:17;-2.30;99.90
32476;DHT22;18929;48.008;10.882;2024-01-10T04:58:44;-2.40;99.90
32476;DHT22;18929;48.008;10.882;2024-01-10T05:01:13;-2.40;99.90
32476;DHT22;18929;48.008;10.882;2024-01-10T05:03:40;-2.50;99.90
32476;DHT22;18929;48.008;10.882;2024-01-10T05:06:07;-2.50;99.90
32476;DHT22;18929;48.008;10.882;2024-01-10T05:08:34;-2.40;99.90
32476;DHT22;18929;48.008;10.882;2024-01-10T05:11:01;-2.50;99.90
32476;DHT22;18929;48.008;10.882;2024-01-10T05:13:28;-2.60;99.90
32476;DHT22;18929;48.008;10.882;2024-01-10T05:15:55;-2.80;99.90
32476;DHT22;18929;48.008;10.882;2024-01-10T05:18:23;-2.60;99.90
32476;DHT22;18929;48.008;10.882;2024-01-10T05:20:50;-2.40;99.90
32476;DHT22;18929;48.008;10.882;2024-01-10T05:23:17;-2.90;99.90
32476;DHT22;18929;48.008;10.882;2024-01-10T05:25:44;-2.90;99.90
32476;DHT22;18929;48.008;10.882;2024-01-10T05:28:11;-2.50;99.90
32476;DHT22;18929;48.008;10.882;2024-01-10T05:30:38;-2.90;99.90
32476;DHT22;18929;48.008;10.882;2024-01-10T05:33:05;-2.40;99.90
32476;DHT22;18929;48.008;10.882;2024-01-10T05:35:34;-2.80;99.90
32476;DHT22;18929;48.008;10.882;2024-01-10T05:38:01;-2.70;99.90
32476;DHT22;18929;48.008;10.882;2024-01-10T05:40:29;-3.00;99.90
32476;DHT22;18929;48.008;10.882;2024-01-10T05:42:57;-2.90;99.90
32476;DHT22;18929;48.008;10.882;2024-01-10T05:45:24;-2.70;99.90
32476;DHT22;18929;48.008;10.882;2024-01-10T05:47:51;-2.30;99.90
32476;DHT22;18929;48.008;10.882;2024-01-10T05:50:18;-2.20;99.90
32476;DHT22;18929;48.008;10.882;2024-01-10T05:52:47;-2.50;99.90
32476;DHT22;18929;48.008;10.882;2024-01-10T05:55:14;-2.10;99.90
32476;DHT22;18929;48.008;10.882;2024-01-10T05:57:41;-3.10;99.90
32476;DHT22;18929;48.008;10.882;2024-01-10T06:00:08;-3.20;99.90
32476;DHT22;18929;48.008;10.882;2024-01-10T06:02:36;-2.70;99.90
32476;DHT22;18929;48.008;10.882;2024-01-10T06:05:05;-2.40;99.90
32476;DHT22;18929;48.008;10.882;2024-01-10T06:07:32;-2.50;99.90
32476;DHT22;18929;48.008;10.882;2024-01-10T06:10:00;-2.60;99.90
32476;DHT22;18929;48.008;10.882;2024-01-10T06:15:18;-3.30;99.90
32476;DHT22;18929;48.008;10.882;2024-01-10T06:17:45;-3.20;99.90
32476;DHT22;18929;48.008;10.882;2024-01-10T06:20:12;-3.90;99.90
32476;DHT22;18929;48.008;10.882;2024-01-10T06:22:39;-3.40;99.90
32476;DHT22;18929;48.008;10.882;2024-01-10T06:25:08;-2.80;99.90
32476;DHT22;18929;48.008;10.882;2024-01-10T06:27:35;-2.50;99.90
32476;DHT22;18929;48.008;10.882;2024-01-10T06:30:02;-2.40;99.90
32476;DHT22;18929;48.008;10.882;2024-01-10T06:32:30;-2.30;99.90
32476;DHT22;18929;48.008;10.882;2024-01-10T06:34:57;-2.20;99.90
32476;DHT22;18929;48.008;10.882;2024-01-10T06:37:23;-2.30;99.90
32476;DHT22;18929;48.008;10.882;2024-01-10T06:39:50;-2.20;99.90
32476;DHT22;18929;48.008;10.882;2024-01-10T06:42:19;-2.20;99.90
32476;DHT22;18929;48.008;10.882;2024-01-10T06:44:46;-2.30;99.90
32476;DHT22;18929;48.008;10.882;2024-01-10T06:47:13;-2.00;99.90
32476;DHT22;18929;48.008;10.882;2024-01-10T06:49:40;-2.20;99.90
32476;DHT22;18929;48.008;10.882;2024-01-10T06:52:07;-2.30;99.90
32476;DHT22;18929;48.008;10.882;2024-01-10T06:54:34;-2.60;99.90
32476;DHT22;18929;48.008;10.882;2024-01-10T06:57:01;-2.20;99.90
32476;DHT22;18929;48.008;10.882;2024-01-10T06:59:29;-2.30;99.90
32476;DHT22;18929;48.008;10.882;2024-01-10T07:01:56;-2.70;99.90
32476;DHT22;18929;48.008;10.882;2024-01-10T07:04:23;-2.60;99.90
32476;DHT22;18929;48.008;10.882;2024-01-10T07:06:50;-2.90;99.90
32476;DHT22;18929;48.008;10.882;2024-01-10T07:09:18;-3.20;99.90
32476;DHT22;18929;48.008;10.882;2024-01-10T07:11:45;-3.60;99.90
32476;DHT22;18929;48.008;10.882;2024-01-10T07:14:13;-2.80;99.90
32476;DHT22;18929;48.008;10.882;2024-01-10T07:16:41;-2.60;99.90
32476;DHT22;18929;48.008;10.882;2024-01-10T07:19:11;-2.40;99.90
32476;DHT22;18929;48.008;10.882;2024-01-10T07:21:39;-2.40;99.90
32476;DHT22;18929;48.008;10.882;2024-01-10T07:24:06;-3.50;99.90
32476;DHT22;18929;48.008;10.882;2024-01-10T07:26:34;-3.30;99.90
32476;DHT22;18929;48.008;10.882;2024-01-10T07:31:39;-4.00;99.90
32476;DHT22;18929;48.008;10.882;2024-01-10T07:34:07;-4.30;99.90
32476;DHT22;18929;48.008;10.882;2024-01-10T07:36:40;-4.60;99.90
32476;DHT22;18929;48.008;10.882;2024-01-10T07:39:07;-4.40;99.90
32476;DHT22;18929;48.008;10.882;2024-01-10T07:41:34;-3.80;99.90
32476;DHT22;18929;48.008;10.882;2024-01-10T07:44:01;-3.90;99.90
32476;DHT22;18929;48.008;10.882;2024-01-10T07:46:28;-3.40;99.90
32476;DHT22;18929;48.008;10.882;2024-01-10T07:48:56;-2.90;99.90
32476;DHT22;18929;48.008;10.882;2024-01-10T07:51:24;-3.20;99.90
32476;DHT22;18929;48.008;10.882;2024-01-10T07:53:51;-3.40;99.90
32476;DHT22;18929;48.008;10.882;2024-01-10T07:56:18;-3.70;99.90
32476;DHT22;18929;48.008;10.882;2024-01-10T07:58:45;-3.40;99.90
32476;DHT22;18929;48.008;10.882;2024-01-10T08:01:12;-3.40;99.90
32476;DHT22;18929;48.008;10.882;2024-01-10T08:03:39;-3.40;99.90
32476;DHT22;18929;48.008;10.882;2024-01-10T08:06:06;-3.40;99.90
32476;DHT22;18929;48.008;10.882;2024-01-10T08:08:35;-3.60;99.90
32476;DHT22;18929;48.008;10.882;2024-01-10T08:11:02;-3.90;99.90
32476;DHT22;18929;48.008;10.882;2024-01-10T08:13:29;-3.60;99.90
32476;DHT22;18929;48.008;10.882;2024-01-10T08:15:56;-2.90;99.90
32476;DHT22;18929;48.008;10.882;2024-01-10T08:18:23;-2.70;99.90
32476;DHT22;18929;48.008;10.882;2024-01-10T08:20:50;-2.70;99.90
32476;DHT22;18929;48.008;10.882;2024-01-10T08:23:17;-2.80;99.90
32476;DHT22;18929;48.008;10.882;2024-01-10T08:25:47;-2.90;99.90
32476;DHT22;18929;48.008;10.882;2024-01-10T08:28:14;-2.80;99.90
32476;DHT22;18929;48.008;10.882;2024-01-10T08:30:42;-2.70;99.90
32476;DHT22;18929;48.008;10.882;2024-01-10T08:33:17;-2.50;99.90
32476;DHT22;18929;48.008;10.882;2024-01-10T08:35:44;-2.40;99.90
32476;DHT22;18929;48.008;10.882;2024-01-10T08:38:11;-2.50;99.90
32476;DHT22;18929;48.008;10.882;2024-01-10T08:40:38;-2.60;99.90
32476;DHT22;18929;48.008;10.882;2024-01-10T08:43:06;-2.50;99.90
32476;DHT22;18929;48.008;10.882;2024-01-10T08:45:33;-2.10;99.90
32476;DHT22;18929;48.008;10.882;2024-01-10T08:48:00;-1.90;99.90
32476;DHT22;18929;48.008;10.882;2024-01-10T08:50:28;-1.80;99.90
32476;DHT22;18929;48.008;10.882;2024-01-10T08:52:54;-1.80;99.90
32476;DHT22;18929;48.008;10.882;2024-01-10T08:55:21;-1.70;99.90
32476;DHT22;18929;48.008;10.882;2024-01-10T08:57:48;-1.60;99.90
32476;DHT22;18929;48.008;10.882;2024-01-10T09:00:17;-1.60;99.90
32476;DHT22;18929;48.008;10.882;2024-01-10T09:02:44;-1.70;99.90
32476;DHT22;18929;48.008;10.882;2024-01-10T09:05:11;-2.00;99.90
32476;DHT22;18929;48.008;10.882;2024-01-10T09:07:38;-2.20;99.90
32476;DHT22;18929;48.008;10.882;2024-01-10T09:10:05;-2.20;99.90
32476;DHT22;18929;48.008;10.882;2024-01-10T09:12:33;-3.30;99.90
32476;DHT22;18929;48.008;10.882;2024-01-10T09:15:00;-3.90;99.90
32476;DHT22;18929;48.008;10.882;2024-01-10T09:17:29;-3.90;99.90
32476;DHT22;18929;48.008;10.882;2024-01-10T09:19:56;-3.50;99.90
32476;DHT22;18929;48.008;10.882;2024-01-10T09:22:23;-3.00;99.90
32476;DHT22;18929;48.008;10.882;2024-01-10T09:24:50;-3.50;99.90
32476;DHT22;18929;48.008;10.882;2024-01-10T09:27:17;-3.20;99.90
32476;DHT22;18929;48.008;10.882;2024-01-10T09:29:44;-3.40;99.90
32476;DHT22;18929;48.008;10.882;2024-01-10T09:32:11;-2.90;99.90
32476;DHT22;18929;48.008;10.882;2024-01-10T09:34:39;-2.90;99.90
32476;DHT22;18929;48.008;10.882;2024-01-10T09:37:06;-2.70;99.90
32476;DHT22;18929;48.008;10.882;2024-01-10T09:39:33;-2.70;99.90
32476;DHT22;18929;48.008;10.882;2024-01-10T09:42:00;-3.40;99.90
32476;DHT22;18929;48.008;10.882;2024-01-10T09:44:27;-3.20;99.90
32476;DHT22;18929;48.008;10.882;2024-01-10T09:46:54;-3.20;99.90
32476;DHT22;18929;48.008;10.882;2024-01-10T09:49:22;-3.30;99.90
32476;DHT22;18929;48.008;10.882;2024-01-10T09:51:50;-2.90;99.90
32476;DHT22;18929;48.008;10.882;2024-01-10T09:54:20;-2.70;99.90
32476;DHT22;18929;48.008;10.882;2024-01-10T09:56:48;-3.00;99.90
32476;DHT22;18929;48.008;10.882;2024-01-10T09:59:15;-3.40;99.90
32476;DHT22;18929;48.008;10.882;2024-01-10T10:01:42;-3.30;99.90
32476;DHT22;18929;48.008;10.882;2024-01-10T10:04:09;-3.10;99.90
32476;DHT22;18929;48.008;10.882;2024-01-10T10:06:38;-3.00;99.90
32476;DHT22;18929;48.008;10.882;2024-01-10T10:09:06;-2.70;99.90
32476;DHT22;18929;48.008;10.882;2024-01-10T10:11:33;-2.90;99.90
32476;DHT22;18929;48.008;10.882;2024-01-10T10:14:13;-2.60;99.90
32476;DHT22;18929;48.008;10.882;2024-01-10T10:16:40;-2.20;99.90
32476;DHT22;18929;48.008;10.882;2024-01-10T10:19:07;-2.00;99.90
32476;DHT22;18929;48.008;10.882;2024-01-10T10:21:35;-2.00;99.90
32476;DHT22;18929;48.008;10.882;2024-01-10T10:24:02;-2.10;99.90
32476;DHT22;18929;48.008;10.882;2024-01-10T10:26:31;-2.20;99.90
32476;DHT22;18929;48.008;10.882;2024-01-10T10:28:59;-2.70;99.90
32476;DHT22;18929;48.008;10.882;2024-01-10T10:31:26;-2.80;99.90
32476;DHT22;18929;48.008;10.882;2024-01-10T10:33:54;-2.80;99.90
32476;DHT22;18929;48.008;10.882;2024-01-10T10:36:21;-2.80;99.90
32476;DHT22;18929;48.008;10.882;2024-01-10T10:38:48;-2.70;99.90
32476;DHT22;18929;48.008;10.882;2024-01-10T10:41:15;-2.50;99.90
32476;DHT22;18929;48.008;10.882;2024-01-10T10:43:43;-2.30;99.90
32476;DHT22;18929;48.008;10.882;2024-01-10T10:46:11;-2.30;99.90
32476;DHT22;18929;48.008;10.882;2024-01-10T10:48:38;-2.20;99.90
32476;DHT22;18929;48.008;10.882;2024-01-10T10:51:06;-2.30;99.90
32476;DHT22;18929;48.008;10.882;2024-01-10T10:53:34;-2.10;99.90
32476;DHT22;18929;48.008;10.882;2024-01-10T10:56:02;-2.20;99.90
32476;DHT22;18929;48.008;10.882;2024-01-10T10:58:31;-2.30;99.90
32476;DHT22;18929;48.008;10.882;2024-01-10T11:01:00;-2.50;99.90
32476;DHT22;18929;48.008;10.882;2024-01-10T11:03:28;-2.80;99.90
32476;DHT22;18929;48.008;10.882;2024-01-10T11:05:57;-2.60;99.90
32476;DHT22;18929;48.008;10.882;2024-01-10T11:08:25;-2.30;99.90
32476;DHT22;18929;48.008;10.882;2024-01-10T11:10:53;-2.60;99.90
32476;DHT22;18929;48.008;10.882;2024-01-10T11:13:26;-2.60;99.90
32476;DHT22;18929;48.008;10.882;2024-01-10T11:16:09;-2.30;99.90
32476;DHT22;18929;48.008;10.882;2024-01-10T11:18:49;-1.80;99.90
32476;DHT22;18929;48.008;10.882;2024-01-10T11:21:21;-1.60;99.90
32476;DHT22;18929;48.008;10.882;2024-01-10T11:23:51;-1.70;99.90
32476;DHT22;18929;48.008;10.882;2024-01-10T11:26:19;-1.70;99.90
32476;DHT22;18929;48.008;10.882;2024-01-10T11:28:46;-1.70;99.90
32476;DHT22;18929;48.008;10.882;2024-01-10T11:31:15;-1.90;99.90
32476;DHT22;18929;48.008;10.882;2024-01-10T11:33:42;-1.80;99.90
32476;DHT22;18929;48.008;10.882;2024-01-10T11:36:13;-1.40;99.90
32476;DHT22;18929;48.008;10.882;2024-01-10T11:38:41;-1.40;99.90
32476;DHT22;18929;48.008;10.882;2024-01-10T11:41:10;-1.60;99.90
32476;DHT22;18929;48.008;10.882;2024-01-10T11:43:37;-1.40;99.90
32476;DHT22;18929;48.008;10.882;2024-01-10T11:48:39;-1.70;99.90
32476;DHT22;18929;48.008;10.882;2024-01-10T11:51:06;-2.30;99.90
32476;DHT22;18929;48.008;10.882;2024-01-10T11:53:37;-2.60;99.90
32476;DHT22;18929;48.008;10.882;2024-01-10T11:56:08;-2.70;99.90
32476;DHT22;18929;48.008;10.882;2024-01-10T12:01:17;-2.60;99.90
32476;DHT22;18929;48.008;10.882;2024-01-10T12:03:47;-2.20;99.90
32476;DHT22;18929;48.008;10.882;2024-01-10T12:06:14;-1.70;99.90
32476;DHT22;18929;48.008;10.882;2024-01-10T12:08:41;-1.60;99.90
32476;DHT22;18929;48.008;10.882;2024-01-10T12:11:08;-1.30;99.90
32476;DHT22;18929;48.008;10.882;2024-01-10T12:13:35;-1.40;99.90
32476;DHT22;18929;48.008;10.882;2024-01-10T12:16:16;-2.30;99.90
32476;DHT22;18929;48.008;10.882;2024-01-10T12:18:43;-2.40;99.90
32476;DHT22;18929;48.008;10.882;2024-01-10T12:21:11;-2.20;99.90
32476;DHT22;18929;48.008;10.882;2024-01-10T12:23:39;-2.20;99.90
32476;DHT22;18929;48.008;10.882;2024-01-10T12:26:08;-2.30;99.90
32476;DHT22;18929;48.008;10.882;2024-01-10T12:28:36;-2.20;99.90
32476;DHT22;18929;48.008;10.882;2024-01-10T12:31:03;-1.80;99.90
32476;DHT22;18929;48.008;10.882;2024-01-10T12:33:30;-1.90;99.90
32476;DHT22;18929;48.008;10.882;2024-01-10T12:36:04;-1.60;99.90
32476;DHT22;18929;48.008;10.882;2024-01-10T12:38:33;-1.80;99.90
32476;DHT22;18929;48.008;10.882;2024-01-10T12:41:00;-1.40;99.90
32476;DHT22;18929;48.008;10.882;2024-01-10T12:43:28;-1.70;99.90
32476;DHT22;18929;48.008;10.882;2024-01-10T12:46:04;-1.40;99.90
32476;DHT22;18929;48.008;10.882;2024-01-10T12:51:03;-1.50;99.90
32476;DHT22;18929;48.008;10.882;2024-01-10T12:53:35;-1.50;99.90
32476;DHT22;18929;48.008;10.882;2024-01-10T12:56:02;-1.60;99.90
32476;DHT22;18929;48.008;10.882;2024-01-10T12:58:30;-1.60;99.90
32476;DHT22;18929;48.008;10.882;2024-01-10T13:00:57;-1.30;99.90
32476;DHT22;18929;48.008;10.882;2024-01-10T13:03:23;-1.40;99.90
32476;DHT22;18929;48.008;10.882;2024-01-10T13:05:51;-1.40;99.90
32476;DHT22;18929;48.008;10.882;2024-01-10T13:08:17;-1.30;99.90
32476;DHT22;18929;48.008;10.882;2024-01-10T13:10:46;-1.30;99.90
32476;DHT22;18929;48.008;10.882;2024-01-10T13:13:14;-1.20;99.90
32476;DHT22;18929;48.008;10.882;2024-01-10T13:15:43;-1.20;99.90
32476;DHT22;18929;48.008;10.882;2024-01-10T13:18:10;-1.00;99.90
32476;DHT22;18929;48.008;10.882;2024-01-10T13:20:38;-1.00;99.90
32476;DHT22;18929;48.008;10.882;2024-01-10T13:23:05;-1.10;99.90
32476;DHT22;18929;48.008;10.882;2024-01-10T13:25:31;-1.20;99.90
32476;DHT22;18929;48.008;10.882;2024-01-10T13:28:00;-1.00;99.90
32476;DHT22;18929;48.008;10.882;2024-01-10T13:30:27;-1.00;99.90
32476;DHT22;18929;48.008;10.882;2024-01-10T13:32:54;-1.10;99.90
32476;DHT22;18929;48.008;10.882;2024-01-10T13:35:21;-1.20;99.90
32476;DHT22;18929;48.008;10.882;2024-01-10T13:37:48;-1.20;99.90
32476;DHT22;18929;48.008;10.882;2024-01-10T13:40:15;-1.30;99.90
32476;DHT22;18929;48.008;10.882;2024-01-10T13:42:42;-1.50;99.90
32476;DHT22;18929;48.008;10.882;2024-01-10T13:45:11;-1.60;99.90
32476;DHT22;18929;48.008;10.882;2024-01-10T13:47:38;-1.50;99.90
32476;DHT22;18929;48.008;10.882;2024-01-10T13:50:05;-1.70;99.90
32476;DHT22;18929;48.008;10.882;2024-01-10T13:52:32;-1.80;99.90
32476;DHT22;18929;48.008;10.882;2024-01-10T13:54:59;-1.60;99.90
32476;DHT22;18929;48.008;10.882;2024-01-10T13:57:27;-1.50;99.90
32476;DHT22;18929;48.008;10.882;2024-01-10T13:59:54;-1.40;99.90
32476;DHT22;18929;48.008;10.882;2024-01-10T14:02:22;-1.40;99.90
32476;DHT22;18929;48.008;10.882;2024-01-10T14:04:49;-1.20;99.90
32476;DHT22;18929;48.008;10.882;2024-01-10T14:07:16;-1.00;99.90
32476;DHT22;18929;48.008;10.882;2024-01-10T14:09:43;-0.90;99.90
32476;DHT22;18929;48.008;10.882;2024-01-10T14:12:10;-1.10;99.90
32476;DHT22;18929;48.008;10.882;2024-01-10T14:14:37;-1.20;99.90
32476;DHT22;18929;48.008;10.882;2024-01-10T14:17:04;-0.90;99.90
32476;DHT22;18929;48.008;10.882;2024-01-10T14:19:33;-0.60;99.90
32476;DHT22;18929;48.008;10.882;2024-01-10T14:22:00;-0.50;99.90
32476;DHT22;18929;48.008;10.882;2024-01-10T14:24:27;-0.70;99.90
32476;DHT22;18929;48.008;10.882;2024-01-10T14:26:54;-0.80;99.90
32476;DHT22;18929;48.008;10.882;2024-01-10T14:29:21;-0.90;99.90
32476;DHT22;18929;48.008;10.882;2024-01-10T14:31:49;-0.70;99.90
32476;DHT22;18929;48.008;10.882;2024-01-10T14:34:15;-0.60;99.90
32476;DHT22;18929;48.008;10.882;2024-01-10T14:36:44;-0.70;99.90
32476;DHT22;18929;48.008;10.882;2024-01-10T14:39:10;-0.80;99.90
32476;DHT22;18929;48.008;10.882;2024-01-10T14:41:38;-0.90;99.90
32476;DHT22;18929;48.008;10.882;2024-01-10T14:44:06;-1.00;99.90
32476;DHT22;18929;48.008;10.882;2024-01-10T14:46:33;-0.80;99.90
32476;DHT22;18929;48.008;10.882;2024-01-10T14:49:00;-0.60;99.90
32476;DHT22;18929;48.008;10.882;2024-01-10T14:51:27;-0.80;99.90
32476;DHT22;18929;48.008;10.882;2024-01-10T14:53:55;-0.90;99.90
32476;DHT22;18929;48.008;10.882;2024-01-10T14:56:22;-0.60;99.90
32476;DHT22;18929;48.008;10.882;2024-01-10T14:58:49;-0.60;99.90
32476;DHT22;18929;48.008;10.882;2024-01-10T15:01:17;-1.00;99.90
32476;DHT22;18929;48.008;10.882;2024-01-10T15:03:45;-0.90;99.90
32476;DHT22;18929;48.008;10.882;2024-01-10T15:06:12;-1.00;99.90
32476;DHT22;18929;48.008;10.882;2024-01-10T15:08:40;-1.00;99.90
32476;DHT22;18929;48.008;10.882;2024-01-10T15:11:08;-1.00;99.90
32476;DHT22;18929;48.008;10.882;2024-01-10T15:13:36;-1.00;99.90
32476;DHT22;18929;48.008;10.882;2024-01-10T15:16:04;-0.80;99.90
32476;DHT22;18929;48.008;10.882;2024-01-10T15:18:32;-1.10;99.90
32476;DHT22;18929;48.008;10.882;2024-01-10T15:20:59;-1.20;99.90
32476;DHT22;18929;48.008;10.882;2024-01-10T15:23:26;-0.90;99.90
32476;DHT22;18929;48.008;10.882;2024-01-10T15:25:52;-1.10;99.90
32476;DHT22;18929;48.008;10.882;2024-01-10T15:28:21;-1.30;99.90
32476;DHT22;18929;48.008;10.882;2024-01-10T15:30:57;-1.10;99.90
32476;DHT22;18929;48.008;10.882;2024-01-10T15:33:26;-0.80;99.90
32476;DHT22;18929;48.008;10.882;2024-01-10T15:35:53;-1.10;99.90
32476;DHT22;18929;48.008;10.882;2024-01-10T15:38:20;-0.90;99.90
32476;DHT22;18929;48.008;10.882;2024-01-10T15:40:48;-0.90;99.90